Time;durP1;ratioP1;P1;durP2;ratioP2;P2;SDS_P1;SDS_P2;PMS_P1;PMS_P2;Temp;Humidity;BMP_temperature;BMP_pressure;BME280_temperature;BME280_humidity;BME280_pressure;Samples;Min_cycle;Max_cycle;Signal;HPM_P1;HPM_P2
2021/04/06 00:00:59;;;;;;;26.13;13.05;;;179.40;2022.40;;;;;;5052747;28;20029;-79
2021/04/06 00:03:28;;;;;;;27.48;15.15;;;179.60;2022.40;;;;;;5052871;28;20030;-79
2021/04/06 00:06:02;;;;;;;24.20;13.90;;;179.40;2022.40;;;;;;5050888;28;20044;-79
2021/04/06 00:08:28;;;;;;;25.17;14.25;;;179.30;2048.00;;;;;;5051597;28;20028;-80
2021/04/06 00:10:59;;;;;;;23.75;14.30;;;179.30;2048.00;;;;;;5034855;28;20031;-79
2021/04/06 00:13:28;;;;;;;24.05;14.25;;;179.30;2048.00;;;;;;5051570;28;20039;-80
2021/04/06 00:15:54;;;;;;;25.20;14.40;;;179.30;2048.00;;;;;;5034799;28;20060;-80
2021/04/06 00:18:22;;;;;;;27.95;15.85;;;179.40;2048.00;;;;;;5052748;28;20041;-80
2021/04/06 00:20:50;;;;;;;25.60;15.85;;;179.30;2048.00;;;;;;5051420;28;20056;-80
2021/04/06 00:23:18;;;;;;;24.52;14.45;;;179.30;2048.00;;;;;;5050180;28;20469;-80
2021/04/06 00:25:48;;;;;;;27.95;15.13;;;179.20;2073.60;;;;;;5051584;28;20032;-80
2021/04/06 00:28:20;;;;;;;26.42;15.48;;;179.20;2073.60;;;;;;5053368;28;20041;-89
2021/04/06 00:30:52;;;;;;;30.35;15.45;;;154.50;2073.60;;;;;;5052497;28;20071;-81
2021/04/06 00:33:26;;;;;;;28.02;15.65;;;154.50;2073.60;;;;;;5053894;28;20597;-83
2021/04/06 00:35:54;;;;;;;29.20;15.50;;;154.40;2073.60;;;;;;5053892;28;20025;-80
2021/04/06 00:38:22;;;;;;;26.73;17.38;;;154.40;2073.60;;;;;;5053866;28;20045;-80
2021/04/06 00:40:51;;;;;;;28.67;13.70;;;154.50;2073.60;;;;;;5054910;28;20098;-83
2021/04/06 00:43:18;;;;;;;29.27;16.35;;;154.50;2073.60;;;;;;5055373;28;20013;-80
2021/04/06 00:45:46;;;;;;;26.10;16.02;;;154.30;2099.20;;;;;;5054846;28;20032;-79
2021/04/06 00:48:19;;;;;;;24.17;14.15;;;154.30;2099.20;;;;;;5056279;28;20398;-79
2021/04/06 00:51:15;;;;;;;28.02;15.60;;;154.40;2099.20;;;;;;5055786;28;20060;-82
2021/04/06 00:53:55;;;;;;;25.45;14.57;;;154.40;2073.60;;;;;;5039845;28;20132;-81
2021/04/06 00:56:29;;;;;;;30.60;15.27;;;154.30;2099.20;;;;;;5037926;28;20065;-80
2021/04/06 00:58:58;;;;;;;26.95;13.88;;;154.30;2099.20;;;;;;5055681;28;20037;-85
2021/04/06 01:01:34;;;;;;;22.92;13.20;;;154.20;2099.20;;;;;;5053889;28;20071;-79
2021/04/06 01:04:15;;;;;;;17.50;11.05;;;154.30;2099.20;;;;;;5036552;28;20036;-80
2021/04/06 01:07:00;;;;;;;25.25;14.93;;;154.20;2099.20;;;;;;5054698;28;20107;-80
2021/04/06 01:09:51;;;;;;;28.27;16.23;;;154.20;2099.20;;;;;;5053354;28;20373;-81
2021/04/06 01:12:28;;;;;;;22.60;13.73;;;154.30;2099.20;;;;;;5053755;28;20025;-79
2021/04/06 01:14:55;;;;;;;25.15;12.88;;;154.30;2099.20;;;;;;5050894;28;20040;-80
2021/04/06 01:17:27;;;;;;;23.30;14.50;;;154.20;2099.20;;;;;;5055320;28;20105;-81
2021/04/06 01:19:54;;;;;;;24.80;13.82;;;154.20;2099.20;;;;;;5053946;28;20415;-80
2021/04/06 01:22:20;;;;;;;27.08;13.20;;;154.10;2099.20;;;;;;5053122;28;20729;-80
2021/04/06 01:24:47;;;;;;;;;;;154.20;2099.20;;;;;;5036745;28;20032;-81
2021/04/06 01:27:17;;;;;;;23.02;13.40;;;154.20;2099.20;;;;;;5053851;28;19932;-81
2021/04/06 01:29:55;;;;;;;20.65;12.18;;;154.10;2099.20;;;;;;5054073;28;20017;-79
2021/04/06 01:32:22;;;;;;;23.85;13.05;;;154.10;2099.20;;;;;;5051982;28;20059;-79
2021/04/06 01:34:49;;;;;;;22.13;12.18;;;154.20;2073.60;;;;;;5054869;28;20040;-85
2021/04/06 01:37:22;;;;;;;22.27;13.27;;;154.10;2099.20;;;;;;5033666;28;20033;-86
2021/04/06 01:39:52;;;;;;;29.38;15.07;;;154.20;2099.20;;;;;;5036381;28;20035;-82
2021/04/06 01:42:20;;;;;;;21.88;13.10;;;154.10;2099.20;;;;;;5051385;28;20412;-81
2021/04/06 01:44:49;;;;;;;23.60;13.60;;;154.10;2099.20;;;;;;5052341;28;20107;-80
2021/04/06 01:47:16;;;;;;;24.48;14.32;;;154.10;2099.20;;;;;;5052659;28;20057;-81
2021/04/06 01:49:44;;;;;;;21.60;13.50;;;154.10;2099.20;;;;;;5052702;28;20079;-80
2021/04/06 01:52:10;;;;;;;29.58;13.93;;;154.00;2099.20;;;;;;5035564;28;20029;-81
2021/04/06 01:54:38;;;;;;;25.20;14.18;;;154.10;2099.20;;;;;;5047010;28;20124;-81
2021/04/06 01:57:16;;;;;;;22.38;13.68;;;154.00;2099.20;;;;;;5052990;28;20108;-80
2021/04/06 01:59:48;;;;;;;22.50;14.02;;;154.00;2099.20;;;;;;5052688;28;20435;-81
2021/04/06 02:02:14;;;;;;;25.10;13.30;;;154.00;2099.20;;;;;;5048132;28;20074;-80
2021/04/06 02:04:43;;;;;;;;;;;154.10;2099.20;;;;;;5037018;28;20028;-81
2021/04/06 02:07:12;;;;;;;24.73;14.07;;;154.00;2099.20;;;;;;5044940;28;19960;-80
2021/04/06 02:09:39;;;;;;;21.50;13.00;;;154.00;2099.20;;;;;;5039905;28;20036;-81
2021/04/06 02:12:06;;;;;;;23.08;12.77;;;154.00;2099.20;;;;;;5047159;28;20461;-80
2021/04/06 02:14:32;;;;;;;24.88;13.38;;;154.10;2099.20;;;;;;5054043;28;20048;-80
2021/04/06 02:17:01;;;;;;;;;;;154.20;2073.60;;;;;;5031230;28;20083;-82
2021/04/06 02:19:37;;;;;;;25.80;13.52;;;154.20;2073.60;;;;;;5024555;28;19912;-81
2021/04/06 02:22:16;;;;;;;27.30;14.30;;;154.10;2073.60;;;;;;5040264;28;20047;-80
2021/04/06 02:24:47;;;;;;;28.35;13.52;;;154.00;2099.20;;;;;;5027130;28;20100;-80
2021/04/06 02:27:23;;;;;;;27.85;14.68;;;153.90;2124.80;;;;;;5037621;28;20025;-80
2021/04/06 02:30:04;;;;;;;27.05;14.75;;;153.90;2124.80;;;;;;5037512;28;20013;-81
2021/04/06 02:32:32;;;;;;;23.88;13.57;;;153.80;2150.40;;;;;;5041742;28;20108;-82
2021/04/06 02:35:00;;;;;;;24.50;15.93;;;153.70;2150.40;;;;;;5036960;28;20033;-80
2021/04/06 02:37:29;;;;;;;26.85;14.50;;;153.80;2150.40;;;;;;5041614;28;20017;-80
2021/04/06 02:39:59;;;;;;;32.05;15.18;;;154.00;2124.80;;;;;;5039799;28;20061;-80
2021/04/06 02:42:25;;;;;;;25.00;15.13;;;154.10;2099.20;;;;;;5031351;28;20021;-81
2021/04/06 02:45:15;;;;;;;;;;;154.10;2099.20;;;;;;5040031;28;20427;-82
2021/04/06 02:47:50;;;;;;;24.13;13.90;;;154.10;2099.20;;;;;;5007947;28;20003;-80
2021/04/06 02:50:26;;;;;;;25.95;15.68;;;154.00;2099.20;;;;;;5031354;28;20044;-81
2021/04/06 02:52:53;;;;;;;25.20;14.75;;;154.00;2124.80;;;;;;5037690;28;20029;-80
2021/04/06 02:55:21;;;;;;;24.90;13.98;;;154.00;2099.20;;;;;;5034493;28;20032;-82
2021/04/06 02:57:54;;;;;;;26.05;14.68;;;154.10;2099.20;;;;;;5029830;28;20091;-80
2021/04/06 03:00:29;;;;;;;22.35;13.90;;;154.20;2073.60;;;;;;5031489;28;20488;-84
2021/04/06 03:03:03;;;;;;;26.00;13.95;;;154.10;2099.20;;;;;;5038931;28;20528;-80
2021/04/06 03:05:37;;;;;;;23.48;14.50;;;153.90;2124.80;;;;;;5017721;28;20033;-82
2021/04/06 03:08:04;;;;;;;24.92;14.15;;;153.80;2124.80;;;;;;5031703;28;20043;-82
2021/04/06 03:10:31;;;;;;;21.98;12.98;;;153.90;2150.40;;;;;;5040316;28;20032;-80
2021/04/06 03:13:03;;;;;;;20.85;13.65;;;153.80;2124.80;;;;;;5031480;28;20031;-80
2021/04/06 03:15:31;;;;;;;28.67;13.70;;;154.00;2124.80;;;;;;5029780;28;20091;-79
2021/04/06 03:17:57;;;;;;;22.55;14.10;;;154.00;2124.80;;;;;;5029001;28;20124;-80
2021/04/06 03:20:24;;;;;;;20.92;13.40;;;154.10;2150.40;;;;;;5022469;28;20029;-80
2021/04/06 03:22:52;;;;;;;23.45;13.07;;;154.10;2124.80;;;;;;5032297;28;20041;-79
2021/04/06 03:25:18;;;;;;;22.48;13.63;;;154.00;2124.80;;;;;;5043415;28;20025;-83
2021/04/06 03:27:49;;;;;;;23.88;13.68;;;154.10;2124.80;;;;;;5032170;28;20013;-80
2021/04/06 03:30:34;;;;;;;26.40;14.20;;;154.30;2099.20;;;;;;5018963;28;20075;-82
2021/04/06 03:33:11;;;;;;;24.30;15.20;;;154.40;2073.60;;;;;;5041216;28;20027;-80
2021/04/06 03:35:40;;;;;;;26.83;13.43;;;154.40;2099.20;;;;;;5029848;28;20025;-79
2021/04/06 03:38:07;;;;;;;26.08;14.57;;;154.40;2099.20;;;;;;5038058;28;20017;-79
2021/04/06 03:40:36;;;;;;;26.13;15.38;;;154.40;2073.60;;;;;;5026522;28;20069;-80
2021/04/06 03:43:20;;;;;;;23.23;13.10;;;179.30;2022.40;;;;;;5037725;28;20104;-80
2021/04/06 03:46:03;;;;;;;22.75;13.30;;;179.50;1996.80;;;;;;5035220;28;20033;-81
2021/04/06 03:48:34;;;;;;;21.85;13.55;;;179.80;1971.20;;;;;;5039335;28;20044;-83
2021/04/06 03:51:01;;;;;;;24.45;15.38;;;179.90;1945.60;;;;;;5030866;28;20040;-80
2021/04/06 03:53:41;;;;;;;28.00;14.20;;;180.00;1945.60;;;;;;5040209;28;20100;-80
2021/04/06 03:56:10;;;;;;;29.30;16.05;;;180.00;1945.60;;;;;;5018187;28;20555;-80
2021/04/06 03:58:43;;;;;;;25.58;13.18;;;179.80;1971.20;;;;;;5033419;28;20453;-80
2021/04/06 04:01:10;;;;;;;25.42;14.00;;;180.00;1945.60;;;;;;5039314;28;20033;-81
2021/04/06 04:03:36;;;;;;;28.10;14.25;;;180.00;1945.60;;;;;;5043402;28;20009;-80
2021/04/06 04:06:01;;;;;;;;;;;180.10;1920.00;;;;;;5047738;28;20028;-82
2021/04/06 04:08:27;;;;;;;24.83;13.50;;;204.80;1920.00;;;;;;5041434;28;19951;-83
2021/04/06 04:10:53;;;;;;;;;;;179.90;1945.60;;;;;;5043078;28;20033;-80
2021/04/06 04:13:19;;;;;;;22.02;12.52;;;179.90;1971.20;;;;;;5043712;28;20249;-84
2021/04/06 04:15:45;;;;;;;;;;;180.10;1971.20;;;;;;5040733;28;20040;-82
2021/04/06 04:18:11;;;;;;;24.65;14.05;;;204.80;1920.00;;;;;;5034044;28;20365;-80
2021/04/06 04:20:36;;;;;;;;;;;180.10;1945.60;;;;;;5042665;28;20025;-83
2021/04/06 04:23:02;;;;;;;23.08;12.38;;;204.90;1920.00;;;;;;5039136;28;19909;-80
2021/04/06 04:25:27;;;;;;;;;;;204.90;1894.40;;;;;;5021376;28;20473;-80
2021/04/06 04:27:53;;;;;;;28.48;16.23;;;204.80;1920.00;;;;;;5035714;28;20331;-80
2021/04/06 04:30:35;;;;;;;;;;;204.90;1894.40;;;;;;5043194;28;20485;-85
2021/04/06 04:33:03;;;;;;;19.25;12.60;;;205.10;1868.80;;;;;;5038005;28;19905;-81
2021/04/06 04:35:28;;;;;;;22.92;13.25;;;205.00;1894.40;;;;;;5037817;28;20384;-82
2021/04/06 04:37:54;;;;;;;;;;;205.10;1894.40;;;;;;5025900;28;20129;-86
2021/04/06 04:40:20;;;;;;;30.08;14.93;;;205.00;1894.40;;;;;;5039278;28;19921;-80
2021/04/06 04:42:46;;;;;;;;;;;204.90;1920.00;;;;;;5038170;28;20100;-81
2021/04/06 04:45:12;;;;;;;35.53;18.73;;;204.90;1894.40;;;;;;5048730;28;19908;-83
2021/04/06 04:47:37;;;;;;;24.35;13.63;;;204.90;1920.00;;;;;;5038067;28;20481;-79
2021/04/06 04:50:03;;;;;;;;;;;205.00;1894.40;;;;;;5034522;28;20105;-80
2021/04/06 04:52:29;;;;;;;26.27;15.77;;;205.10;1868.80;;;;;;5043564;28;19908;-83
2021/04/06 04:54:55;;;;;;;;;;;205.00;1894.40;;;;;;5020614;28;20030;-79
2021/04/06 04:57:20;;;;;;;31.20;16.60;;;204.80;1945.60;;;;;;5039145;28;19948;-79
2021/04/06 04:59:46;;;;;;;;;;;179.90;1971.20;;;;;;5037313;28;20028;-80
2021/04/06 05:02:12;;;;;;;28.05;15.85;;;204.80;1945.60;;;;;;5038006;28;20365;-80
2021/04/06 05:04:37;;;;;;;;;;;205.10;1920.00;;;;;;5034259;28;20021;-81
2021/04/06 05:07:03;;;;;;;24.83;15.40;;;205.20;1894.40;;;;;;5034013;28;20258;-81
2021/04/06 05:09:28;;;;;;;;;;;205.20;1894.40;;;;;;5040393;28;20022;-80
2021/04/06 05:11:55;;;;;;;20.23;13.48;;;205.20;1894.40;;;;;;5019663;28;20018;-83
2021/04/06 05:14:20;;;;;;;23.88;14.68;;;205.00;1945.60;;;;;;5040764;28;20028;-84
2021/04/06 05:16:46;;;;;;;;;;;205.30;1920.00;;;;;;5016332;28;20045;-80
2021/04/06 05:19:11;;;;;;;24.60;12.25;;;205.40;1920.00;;;;;;5031351;28;19916;-80
2021/04/06 05:21:37;;;;;;;;;;;205.50;1894.40;;;;;;5055830;28;20486;-80
2021/04/06 05:24:03;;;;;;;20.92;13.85;;;205.60;1894.40;;;;;;5053877;28;19904;-80
2021/04/06 05:26:29;;;;;;;24.80;12.45;;;205.60;1894.40;;;;;;5037278;28;20116;-80
2021/04/06 05:28:54;;;;;;;;;;;205.60;1868.80;;;;;;5055640;28;20099;-83
2021/04/06 05:31:20;;;;;;;24.23;13.10;;;230.40;1868.80;;;;;;5028905;28;20380;-80
2021/04/06 05:33:46;;;;;;;;;;;230.40;1868.80;;;;;;5036429;28;20108;-81
2021/04/06 05:36:12;;;;;;;20.17;12.85;;;230.40;1868.80;;;;;;5051510;28;19904;-79
2021/04/06 05:38:37;;;;;;;;;;;230.40;1817.60;;;;;;5050507;28;20025;-79
2021/04/06 05:41:03;;;;;;;19.23;11.18;;;230.50;1766.40;;;;;;5051737;28;19912;-80
2021/04/06 05:43:29;;;;;;;;;;;230.60;1740.80;;;;;;5054813;28;20043;-79
2021/04/06 05:45:56;;;;;;;35.88;14.77;;;230.50;1766.40;;;;;;5054582;28;19915;-79
2021/04/06 05:48:23;;;;;;;27.00;14.60;;;230.50;1792.00;;;;;;5053459;28;20021;-84
2021/04/06 05:50:52;;;;;;;27.55;13.88;;;230.60;1766.40;;;;;;5053421;28;20028;-79
2021/04/06 05:53:20;;;;;;;26.52;13.50;;;230.70;1766.40;;;;;;5053330;28;20377;-83
2021/04/06 05:55:46;;;;;;;25.45;13.15;;;230.50;1817.60;;;;;;5050836;28;20366;-79
2021/04/06 05:58:11;;;;;;;;;;;230.60;1817.60;;;;;;5054643;28;20033;-78
2021/04/06 06:00:37;;;;;;;23.25;7.00;;;205.70;1868.80;;;;;;5054317;28;19919;-80
2021/04/06 06:03:06;;;;;;;25.17;8.20;;;205.40;1920.00;;;;;;5052774;28;20024;-78
2021/04/06 06:05:31;;;;;;;27.50;9.13;;;205.40;1945.60;;;;;;5052883;28;20041;-79
2021/04/06 06:07:57;;;;;;;;;;;205.20;1945.60;;;;;;5052125;28;20027;-82
2021/04/06 06:10:28;;;;;;;23.42;5.43;;;205.30;1945.60;;;;;;5036944;28;19958;-80
2021/04/06 06:12:54;;;;;;;26.45;6.65;;;205.20;1920.00;;;;;;5035913;28;20491;-79
2021/04/06 06:15:20;;;;;;;21.58;5.57;;;205.00;1920.00;;;;;;5029046;28;20033;-79
2021/04/06 06:18:03;;;;;;;;;;;204.90;1920.00;;;;;;5053301;28;20063;-78
2021/04/06 06:20:28;;;;;;;13.35;3.33;;;204.80;1868.80;;;;;;5040899;28;19917;-79
2021/04/06 06:22:54;;;;;;;;;;;180.10;1894.40;;;;;;5054422;28;20473;-78
2021/04/06 06:25:20;;;;;;;20.05;3.97;;;179.90;1894.40;;;;;;5035301;28;19912;-84
2021/04/06 06:27:47;;;;;;;;;;;179.90;1894.40;;;;;;5054333;28;20104;-76
2021/04/06 06:30:23;;;;;;;19.20;4.97;;;179.80;1920.00;;;;;;5050489;28;19945;-79
2021/04/06 06:33:09;;;;;;;25.50;5.78;;;179.90;1920.00;;;;;;5051862;28;20037;-80
2021/04/06 06:35:35;;;;;;;12.73;3.53;;;179.90;1920.00;;;;;;5053176;28;20029;-80
2021/04/06 06:38:25;;;;;;;12.27;2.55;;;179.90;1945.60;;;;;;5052430;28;20025;-79
2021/04/06 06:40:54;;;;;;;9.40;2.70;;;179.90;1945.60;;;;;;5051087;28;20041;-83
2021/04/06 06:43:22;;;;;;;10.68;1.90;;;179.80;1920.00;;;;;;5052360;28;20017;-80
2021/04/06 06:45:50;;;;;;;26.52;5.22;;;179.90;1945.60;;;;;;5051047;28;20392;-79
2021/04/06 06:48:29;;;;;;;10.95;3.08;;;179.90;1945.60;;;;;;5052390;28;20029;-85
2021/04/06 06:50:56;;;;;;;14.18;2.85;;;179.90;1945.60;;;;;;5053302;28;20051;-79
2021/04/06 06:53:36;;;;;;;9.60;2.40;;;179.70;1945.60;;;;;;5053441;28;20024;-85
2021/04/06 06:56:07;;;;;;;8.18;2.35;;;179.70;1945.60;;;;;;5052554;28;20481;-78
2021/04/06 06:58:40;;;;;;;8.85;2.20;;;179.50;1945.60;;;;;;5053356;28;20021;-78
2021/04/06 07:01:07;;;;;;;8.25;2.40;;;179.50;1945.60;;;;;;5053251;28;20025;-81
2021/04/06 07:03:33;;;;;;;11.60;2.75;;;179.40;1945.60;;;;;;5053155;28;20096;-78
2021/04/06 07:06:34;;;;;;;;;;;179.30;1971.20;;;;;;5053505;28;20045;-83
2021/04/06 07:09:00;;;;;;;9.85;2.70;;;179.30;1971.20;;;;;;4953140;28;19953;-79
2021/04/06 07:11:30;;;;;;;10.63;3.10;;;179.40;1945.60;;;;;;4939854;29;20055;-83
2021/04/06 07:13:57;;;;;;;18.77;5.60;;;179.30;1945.60;;;;;;4953409;28;20031;-79
2021/04/06 07:16:24;;;;;;;11.98;4.38;;;179.20;1945.60;;;;;;4952810;28;20440;-82
2021/04/06 07:18:51;;;;;;;11.75;4.03;;;179.20;1920.00;;;;;;4943823;28;20031;-79
2021/04/06 07:21:24;;;;;;;16.48;6.82;;;154.40;1920.00;;;;;;4932120;28;20035;-79
2021/04/06 07:24:02;;;;;;;14.60;6.07;;;154.50;1920.00;;;;;;4943759;28;20039;-85
2021/04/06 07:26:30;;;;;;;14.57;4.65;;;154.50;1920.00;;;;;;4953070;29;20484;-82
2021/04/06 07:28:57;;;;;;;5.97;2.15;;;154.40;1920.00;;;;;;4953742;29;20120;-88
2021/04/06 07:31:23;;;;;;;6.18;2.90;;;154.40;1920.00;;;;;;4953081;28;20547;-81
2021/04/06 07:33:49;;;;;;;8.88;2.70;;;154.50;1894.40;;;;;;4953104;29;20399;-81
2021/04/06 07:36:16;;;;;;;;;;;179.30;1894.40;;;;;;4956225;28;20039;-78
2021/04/06 07:38:47;;;;;;;8.80;3.15;;;179.20;1894.40;;;;;;4946668;29;19906;-79
2021/04/06 07:41:15;;;;;;;5.10;1.95;;;179.40;1894.40;;;;;;4959594;28;20039;-80
2021/04/06 07:43:42;;;;;;;6.72;2.33;;;179.40;1868.80;;;;;;5025753;28;20079;-79
2021/04/06 07:46:07;;;;;;;10.93;2.67;;;179.30;1843.20;;;;;;5058908;28;20072;-78
2021/04/06 07:48:41;;;;;;;;;;;179.40;1843.20;;;;;;5059850;28;20054;-78
2021/04/06 07:51:16;;;;;;;4.38;2.10;;;179.60;1843.20;;;;;;5045512;28;19905;-78
2021/04/06 07:54:02;;;;;;;7.70;2.83;;;179.70;1817.60;;;;;;5058175;28;20035;-79
2021/04/06 07:56:44;;;;;;;9.35;3.40;;;180.00;1817.60;;;;;;5023320;28;20044;-79
2021/04/06 07:59:18;;;;;;;8.38;3.42;;;179.80;1817.60;;;;;;5031538;28;20024;-79
2021/04/06 08:01:47;;;;;;;9.13;3.55;;;179.90;1792.00;;;;;;5039837;28;20413;-80
2021/04/06 08:04:12;;;;;;;14.07;2.80;;;179.80;1792.00;;;;;;5058799;28;20372;-78
2021/04/06 08:06:41;;;;;;;;;;;179.90;1792.00;;;;;;5058243;28;20085;-81
2021/04/06 08:09:35;;;;;;;17.60;3.72;;;180.10;1766.40;;;;;;5059062;28;19908;-79
2021/04/06 08:12:28;;;;;;;18.08;4.60;;;180.00;1766.40;;;;;;5041221;28;20049;-78
2021/04/06 08:15:15;;;;;;;6.03;2.30;;;180.10;1766.40;;;;;;5036612;28;20021;-78
2021/04/06 08:17:43;;;;;;;7.80;3.78;;;179.70;1766.40;;;;;;5059045;28;20135;-78
2021/04/06 08:20:19;;;;;;;10.90;3.97;;;180.00;1766.40;;;;;;5058872;28;20041;-79
2021/04/06 08:23:06;;;;;;;8.50;2.80;;;179.90;1766.40;;;;;;5059084;28;20031;-78
2021/04/06 08:25:31;;;;;;;8.18;2.28;;;179.80;1740.80;;;;;;5051916;28;20570;-80
2021/04/06 08:27:58;;;;;;;;;;;179.70;1766.40;;;;;;5059483;28;20111;-79
2021/04/06 08:30:27;;;;;;;4.77;1.93;;;179.50;1766.40;;;;;;5041529;28;20363;-93
2021/04/06 08:33:07;;;;;;;7.93;2.65;;;179.50;1766.40;;;;;;5046699;28;20095;-89
2021/04/06 08:35:45;;;;;;;11.35;3.95;;;179.70;1792.00;;;;;;5040820;28;20396;-92
2021/04/06 08:38:23;;;;;;;8.48;3.65;;;179.80;1766.40;;;;;;5053562;28;20023;-78
2021/04/06 08:40:54;;;;;;;10.02;3.00;;;179.80;1740.80;;;;;;5053717;28;20167;-82
2021/04/06 08:43:40;;;;;;;4.60;2.15;;;179.70;1740.80;;;;;;5058970;28;20021;-78
2021/04/06 08:46:24;;;;;;;4.75;1.77;;;179.50;1715.20;;;;;;5058804;28;20047;-78
2021/04/06 08:48:52;;;;;;;9.05;2.55;;;179.50;1689.60;;;;;;5040209;28;20089;-80
2021/04/06 08:51:25;;;;;;;5.68;2.33;;;179.50;1715.20;;;;;;5052668;28;20527;-84
2021/04/06 08:53:58;;;;;;;6.45;2.38;;;179.70;1664.00;;;;;;5055418;28;20032;-80
2021/04/06 08:56:40;;;;;;;9.02;3.13;;;179.50;1664.00;;;;;;5037792;28;20040;-79
2021/04/06 08:59:15;;;;;;;5.55;2.67;;;179.50;1689.60;;;;;;5037247;28;20021;-79
2021/04/06 09:01:43;;;;;;;8.10;3.00;;;179.40;1689.60;;;;;;5034198;28;20388;-84
2021/04/06 09:04:17;;;;;;;8.32;3.20;;;179.50;1689.60;;;;;;5048844;28;20028;-79
2021/04/06 09:06:43;;;;;;;10.27;3.33;;;179.30;1689.60;;;;;;5037682;28;20028;-79
2021/04/06 09:09:09;;;;;;;7.10;2.33;;;179.40;1664.00;;;;;;5055250;28;20049;-79
2021/04/06 09:11:36;;;;;;;;;;;179.30;1664.00;;;;;;5054348;28;20032;-85
2021/04/06 09:14:02;;;;;;;8.07;3.47;;;179.50;1664.00;;;;;;5052254;28;20272;-79
2021/04/06 09:16:28;;;;;;;;;;;179.50;1689.60;;;;;;5051697;28;20122;-78
2021/04/06 09:18:57;;;;;;;10.27;2.83;;;179.40;1664.00;;;;;;5055245;28;19954;-86
2021/04/06 09:21:24;;;;;;;13.00;3.05;;;179.60;1638.40;;;;;;5054911;28;20068;-78
2021/04/06 09:23:51;;;;;;;8.02;3.42;;;179.80;1612.80;;;;;;5053603;28;20480;-79
2021/04/06 09:26:17;;;;;;;8.80;3.38;;;179.80;1612.80;;;;;;5051574;28;20031;-79
2021/04/06 09:28:43;;;;;;;;;;;179.70;1612.80;;;;;;5053810;28;20443;-78
2021/04/06 09:31:08;;;;;;;5.70;1.95;;;179.70;1638.40;;;;;;5054413;28;20007;-83
2021/04/06 09:33:34;;;;;;;;;;;179.60;1612.80;;;;;;5041682;28;20027;-80
2021/04/06 09:36:00;;;;;;;6.75;2.88;;;179.60;1612.80;;;;;;5054897;28;19908;-78
2021/04/06 09:38:26;;;;;;;;;;;179.40;1612.80;;;;;;5055135;28;20048;-79
2021/04/06 09:40:53;;;;;;;9.15;3.60;;;179.60;1612.80;;;;;;5054719;28;19924;-77
2021/04/06 09:43:19;;;;;;;9.98;3.33;;;179.80;1638.40;;;;;;5036706;28;20044;-78
2021/04/06 09:45:47;;;;;;;;;;;179.80;1587.20;;;;;;5036885;28;20473;-78
2021/04/06 09:48:14;;;;;;;14.57;5.18;;;179.80;1587.20;;;;;;5036724;28;19909;-80
2021/04/06 09:50:55;;;;;;;7.15;3.47;;;180.10;1612.80;;;;;;5040321;28;20029;-79
2021/04/06 09:53:20;;;;;;;14.80;5.07;;;179.90;1612.80;;;;;;5054359;28;20057;-79
2021/04/06 09:55:47;;;;;;;;;;;180.10;1612.80;;;;;;5053059;28;20122;-77
2021/04/06 09:58:14;;;;;;;11.07;5.10;;;204.90;1561.60;;;;;;5023683;28;19909;-78
2021/04/06 10:00:45;;;;;;;10.05;3.90;;;204.80;1510.40;;;;;;5053717;28;20037;-77
2021/04/06 10:03:18;;;;;;;9.70;3.95;;;180.10;1561.60;;;;;;5053006;28;20021;-77
2021/04/06 10:05:45;;;;;;;6.55;3.25;;;179.90;1587.20;;;;;;5055431;28;20477;-78
2021/04/06 10:08:25;;;;;;;12.55;3.75;;;179.60;1612.80;;;;;;5046475;28;20083;-82
2021/04/06 10:10:51;;;;;;;6.05;2.55;;;179.60;1587.20;;;;;;5053681;28;20033;-82
2021/04/06 10:13:17;;;;;;;;;;;179.70;1612.80;;;;;;5054732;28;20100;-80
2021/04/06 10:15:42;;;;;;;11.90;5.40;;;179.70;1612.80;;;;;;5035770;28;19952;-78
2021/04/06 10:18:09;;;;;;;;;;;180.00;1587.20;;;;;;5053157;28;20067;-82
2021/04/06 10:20:41;;;;;;;19.40;6.75;;;180.00;1587.20;;;;;;5175457;22;19911;-81
2021/04/06 10:23:07;;;;;;;16.02;5.97;;;179.90;1612.80;;;;;;5043059;28;20036;-82
2021/04/06 10:25:37;;;;;;;16.23;6.57;;;179.90;1587.20;;;;;;5053811;28;20472;-83
2021/04/06 10:28:06;;;;;;;16.05;6.43;;;179.60;1638.40;;;;;;5047291;28;20025;-82
2021/04/06 10:30:37;;;;;;;16.27;6.97;;;179.70;1612.80;;;;;;5044239;28;20014;-81
2021/04/06 10:33:13;;;;;;;20.02;6.82;;;179.50;1638.40;;;;;;5043870;28;20121;-83
2021/04/06 10:35:46;;;;;;;;;;;179.60;1612.80;;;;;;5033950;28;20499;-82
2021/04/06 10:38:27;;;;;;;10.52;4.53;;;179.40;1638.40;;;;;;5028408;28;19905;-83
2021/04/06 10:41:24;;;;;;;6.97;3.05;;;179.30;1689.60;;;;;;5030423;28;20403;-84
2021/04/06 10:43:53;;;;;;;12.53;4.27;;;154.50;1689.60;;;;;;5042699;28;20193;-82
2021/04/06 10:46:24;;;;;;;10.25;5.97;;;154.30;1715.20;;;;;;5036907;28;20262;-82
2021/04/06 10:49:01;;;;;;;12.15;4.90;;;154.30;1715.20;;;;;;5030884;28;20029;-82
2021/04/06 10:51:27;;;;;;;10.32;4.43;;;154.40;1740.80;;;;;;5023412;28;20098;-82
2021/04/06 10:53:58;;;;;;;17.02;6.85;;;154.50;1715.20;;;;;;5048152;28;20033;-82
2021/04/06 10:56:32;;;;;;;15.13;5.88;;;179.40;1715.20;;;;;;5026043;28;20029;-84
2021/04/06 10:59:00;;;;;;;11.75;4.65;;;179.30;1715.20;;;;;;5036584;28;20021;-83
2021/04/06 11:01:48;;;;;;;17.27;6.60;;;179.30;1740.80;;;;;;5035552;28;20115;-83
2021/04/06 11:04:19;;;;;;;13.30;5.90;;;179.60;1715.20;;;;;;5012483;28;20060;-83
2021/04/06 11:06:48;;;;;;;11.57;4.22;;;179.70;1715.20;;;;;;5037786;28;20021;-83
2021/04/06 11:09:20;;;;;;;14.15;5.50;;;179.70;1664.00;;;;;;5046835;28;20016;-82
2021/04/06 11:11:48;;;;;;;9.20;3.45;;;179.40;1664.00;;;;;;5042896;28;20474;-86
2021/04/06 11:14:19;;;;;;;9.75;3.30;;;179.30;1664.00;;;;;;5033813;28;20037;-81
2021/04/06 11:16:46;;;;;;;13.13;4.82;;;154.50;1689.60;;;;;;5042517;28;20028;-85
2021/04/06 11:19:30;;;;;;;11.38;5.85;;;154.40;1715.20;;;;;;5051607;28;20032;-78
2021/04/06 11:22:02;;;;;;;14.00;5.28;;;154.30;1766.40;;;;;;5032837;28;20510;-82
2021/04/06 11:24:30;;;;;;;17.77;4.43;;;154.20;1792.00;;;;;;5046503;28;20033;-80
2021/04/06 11:26:57;;;;;;;10.95;3.00;;;154.30;1792.00;;;;;;5042742;28;20025;-80
2021/04/06 11:29:25;;;;;;;17.80;6.70;;;154.00;1817.60;;;;;;5040357;28;20473;-81
2021/04/06 11:31:54;;;;;;;10.93;4.38;;;154.00;1843.20;;;;;;5036484;28;20043;-77
2021/04/06 11:34:20;;;;;;;9.45;4.30;;;154.20;1843.20;;;;;;5033025;28;20036;-80
2021/04/06 11:36:47;;;;;;;8.20;3.33;;;154.10;1868.80;;;;;;5042932;28;20025;-78
2021/04/06 11:39:16;;;;;;;9.98;4.03;;;154.00;1920.00;;;;;;5044327;28;20013;-79
2021/04/06 11:41:44;;;;;;;9.15;4.22;;;153.80;1945.60;;;;;;5044516;28;20021;-79
2021/04/06 11:44:10;;;;;;;6.10;3.40;;;153.70;1971.20;;;;;;5046143;28;20029;-78
2021/04/06 11:46:36;;;;;;;;;;;128.90;1971.20;;;;;;5036215;28;20100;-80
2021/04/06 11:49:03;;;;;;;15.45;7.00;;;153.70;1971.20;;;;;;5048324;28;19905;-80
2021/04/06 11:51:29;;;;;;;13.88;4.30;;;153.70;1996.80;;;;;;5038989;28;20045;-78
2021/04/06 11:53:55;;;;;;;;;;;153.60;1996.80;;;;;;5046645;28;20473;-78
2021/04/06 11:56:21;;;;;;;16.42;5.55;;;153.70;2022.40;;;;;;5048456;28;19912;-79
2021/04/06 11:58:46;;;;;;;;;;;153.70;2048.00;;;;;;5050690;28;20051;-79
2021/04/06 12:01:12;;;;;;;7.07;3.28;;;128.90;2073.60;;;;;;5044517;28;19905;-78
2021/04/06 12:03:38;;;;;;;;;;;128.90;2073.60;;;;;;5047102;28;20472;-79
2021/04/06 12:06:04;;;;;;;10.70;4.57;;;128.90;2073.60;;;;;;5047564;28;20003;-79
2021/04/06 12:08:29;;;;;;;;;;;128.90;2099.20;;;;;;5047110;28;20013;-79
2021/04/06 12:10:55;;;;;;;10.68;4.20;;;128.90;2124.80;;;;;;5050935;28;19912;-79
2021/04/06 12:13:22;;;;;;;16.60;4.40;;;128.80;2150.40;;;;;;5033662;28;20025;-79
2021/04/06 12:15:47;;;;;;;6.43;3.65;;;128.70;2150.40;;;;;;5033943;28;20017;-80
2021/04/06 12:18:13;;;;;;;;;;;128.50;2176.00;;;;;;5037552;28;20044;-79
2021/04/06 12:20:41;;;;;;;8.35;4.03;;;128.70;2201.60;;;;;;5046104;28;20257;-79
2021/04/06 12:23:07;;;;;;;9.93;4.35;;;128.60;2201.60;;;;;;5049653;28;20051;-80
2021/04/06 12:25:32;;;;;;;;;;;128.50;2201.60;;;;;;5050600;28;20017;-80
2021/04/06 12:27:58;;;;;;;12.10;4.97;;;128.70;2201.60;;;;;;5050574;28;19903;-80
2021/04/06 12:30:24;;;;;;;;;;;128.80;2201.60;;;;;;5064335;28;20041;-80
2021/04/06 12:32:50;;;;;;;9.57;4.97;;;128.70;2227.20;;;;;;5055724;28;19948;-80
2021/04/06 12:35:16;;;;;;;6.60;3.65;;;128.70;2252.80;;;;;;5054406;28;20033;-79